Time;durP1;ratioP1;P1;durP2;ratioP2;P2;SDS_P1;SDS_P2;PMS_P1;PMS_P2;Temp;Humidity;BMP_temperature;BMP_pressure;BME280_temperature;BME280_humidity;BME280_pressure;Samples;Min_cycle;Max_cycle;Signal;HPM_P1;HPM_P2
2022/11/28 00:01:40;;;;;;;7.72;4.22;;;0.90;99.90;;;;;;5057508;28;20064;-47
2022/11/28 00:04:08;;;;;;;13.60;4.35;;;0.80;99.90;;;;;;5072346;28;20662;-47
2022/11/28 00:06:44;;;;;;;9.02;4.22;;;0.80;99.90;;;;;;5069906;28;20041;-46
2022/11/28 00:09:12;;;;;;;10.02;4.57;;;0.80;99.90;;;;;;5071167;28;20044;-47
2022/11/28 00:11:41;;;;;;;10.68;4.00;;;0.80;99.90;;;;;;5080630;28;20036;-47
2022/11/28 00:14:08;;;;;;;8.18;3.72;;;0.90;99.90;;;;;;5091110;28;20093;-47
2022/11/28 00:16:36;;;;;;;8.10;3.83;;;0.90;99.90;;;;;;5085189;28;20594;-46
2022/11/28 00:19:03;;;;;;;;;;;0.90;99.90;;;;;;5071439;28;20044;-46
2022/11/28 00:21:30;;;;;;;7.05;3.03;;;0.90;99.90;;;;;;5070015;28;20618;-46
2022/11/28 00:23:58;;;;;;;9.05;3.28;;;0.90;99.90;;;;;;5070596;28;20136;-47
2022/11/28 00:26:29;;;;;;;8.48;3.20;;;0.90;99.90;;;;;;5076843;28;20068;-47
2022/11/28 00:28:56;;;;;;;8.00;4.05;;;0.90;99.90;;;;;;5052635;28;20048;-46
2022/11/28 00:31:29;;;;;;;7.10;3.45;;;0.90;99.90;;;;;;5069281;28;20552;-47
2022/11/28 00:33:56;;;;;;;9.60;3.40;;;0.80;99.90;;;;;;5070905;28;20068;-46
2022/11/28 00:36:24;;;;;;;7.07;3.55;;;0.80;99.90;;;;;;5070946;28;20106;-46
2022/11/28 00:38:51;;;;;;;5.07;2.92;;;0.80;99.90;;;;;;5070687;28;20558;-47
2022/11/28 00:41:24;;;;;;;7.28;3.85;;;0.80;99.90;;;;;;5079601;28;20040;-46
2022/11/28 00:43:51;;;;;;;8.43;4.10;;;0.80;99.90;;;;;;5086426;28;20502;-47
2022/11/28 00:46:19;;;;;;;7.15;3.60;;;0.80;99.90;;;;;;5091257;28;20048;-46
2022/11/28 00:48:47;;;;;;;9.10;4.35;;;0.80;99.90;;;;;;5089447;28;20043;-47
2022/11/28 00:51:24;;;;;;;;;;;0.80;99.90;;;;;;5089328;28;20466;-46
2022/11/28 00:53:53;;;;;;;10.07;3.65;;;0.80;99.90;;;;;;5070053;28;20007;-46
2022/11/28 00:56:23;;;;;;;10.93;3.83;;;0.80;99.90;;;;;;5070671;28;20151;-47
2022/11/28 00:58:50;;;;;;;5.95;3.20;;;0.80;99.90;;;;;;5071411;28;20071;-47
2022/11/28 01:01:20;;;;;;;6.95;3.60;;;0.80;99.90;;;;;;5075135;28;20075;-46
2022/11/28 01:03:49;;;;;;;6.43;3.40;;;0.80;99.90;;;;;;5075140;28;20443;-47
2022/11/28 01:06:27;;;;;;;9.05;4.00;;;0.80;99.90;;;;;;5057298;28;20075;-47
2022/11/28 01:08:54;;;;;;;8.73;3.55;;;0.80;99.90;;;;;;5074995;28;20052;-47
2022/11/28 01:11:22;;;;;;;;;;;0.90;99.90;;;;;;5074274;28;20049;-46
2022/11/28 01:13:48;;;;;;;9.90;3.35;;;0.90;99.90;;;;;;5076654;28;20058;-46
2022/11/28 01:16:16;;;;;;;6.82;3.25;;;0.90;99.90;;;;;;5075640;28;20119;-47
2022/11/28 01:18:43;;;;;;;5.65;3.00;;;0.90;99.90;;;;;;5081684;28;20098;-47
2022/11/28 01:21:10;;;;;;;7.50;2.75;;;0.90;99.90;;;;;;5084407;28;20078;-46
2022/11/28 01:23:37;;;;;;;7.63;3.13;;;0.90;99.90;;;;;;5093764;28;20109;-47
2022/11/28 01:26:06;;;;;;;5.93;3.60;;;0.90;99.90;;;;;;5094610;28;20490;-47
2022/11/28 01:28:33;;;;;;;6.78;3.30;;;0.90;99.90;;;;;;5089456;28;20072;-47
2022/11/28 01:31:05;;;;;;;10.23;3.72;;;0.90;99.90;;;;;;5081558;28;20455;-47
2022/11/28 01:33:32;;;;;;;7.57;3.40;;;0.80;99.90;;;;;;5073948;28;20051;-47
2022/11/28 01:35:59;;;;;;;9.20;4.10;;;0.90;99.90;;;;;;5072969;28;20072;-47
2022/11/28 01:38:27;;;;;;;7.63;3.90;;;0.80;99.90;;;;;;5080470;28;20032;-47
2022/11/28 01:40:55;;;;;;;7.63;3.00;;;0.80;99.90;;;;;;5086333;28;20051;-47
2022/11/28 01:43:22;;;;;;;6.57;3.22;;;0.80;99.90;;;;;;5094448;28;20127;-48
2022/11/28 01:45:50;;;;;;;6.72;3.53;;;0.80;99.90;;;;;;5094252;28;20043;-48
2022/11/28 01:48:19;;;;;;;;;;;0.80;99.90;;;;;;5082990;28;20071;-50
2022/11/28 01:50:48;;;;;;;6.72;2.92;;;0.90;99.90;;;;;;5074231;28;19974;-46
2022/11/28 01:53:16;;;;;;;7.68;3.03;;;0.90;99.90;;;;;;5073616;28;20080;-47
2022/11/28 01:55:53;;;;;;;5.75;3.10;;;0.80;99.90;;;;;;5076889;28;20044;-47
2022/11/28 01:58:20;;;;;;;6.13;3.67;;;0.80;99.90;;;;;;5056626;28;20580;-47
2022/11/28 02:00:48;;;;;;;9.57;3.13;;;0.80;99.90;;;;;;5056705;28;20045;-46
2022/11/28 02:03:23;;;;;;;7.20;3.13;;;0.80;99.90;;;;;;5078113;28;20483;-47
2022/11/28 02:05:51;;;;;;;8.60;3.50;;;0.80;99.90;;;;;;5072922;28;20067;-49
2022/11/28 02:08:18;;;;;;;11.02;3.05;;;0.80;99.90;;;;;;5074126;28;20083;-48
2022/11/28 02:11:05;;;;;;;9.45;3.08;;;0.90;99.90;;;;;;5074383;28;20045;-47
2022/11/28 02:13:52;;;;;;;7.13;3.42;;;0.90;99.90;;;;;;5030220;28;20215;-47
2022/11/28 02:16:46;;;;;;;5.20;2.40;;;0.90;99.90;;;;;;5081239;28;20039;-47
2022/11/28 02:19:33;;;;;;;5.80;3.22;;;0.90;99.90;;;;;;5077891;28;20673;-46
2022/11/28 02:22:05;;;;;;;7.95;3.92;;;1.00;99.90;;;;;;5073219;28;20041;-47
2022/11/28 02:24:50;;;;;;;6.85;3.83;;;1.00;99.90;;;;;;5072673;28;20405;-47
2022/11/28 02:27:39;;;;;;;9.70;3.78;;;0.90;99.90;;;;;;5075302;28;20114;-46
2022/11/28 02:30:29;;;;;;;8.60;3.97;;;0.90;99.90;;;;;;5085496;28;20040;-46
2022/11/28 02:33:21;;;;;;;5.25;3.03;;;0.90;99.90;;;;;;5093291;28;20102;-47
2022/11/28 02:36:27;;;;;;;7.55;3.28;;;0.90;99.90;;;;;;5093450;28;20032;-47
2022/11/28 02:39:13;;;;;;;7.50;3.08;;;0.90;99.90;;;;;;5080457;28;20083;-47
2022/11/28 02:42:03;;;;;;;8.23;3.67;;;0.90;99.90;;;;;;5087436;28;20401;-48
2022/11/28 02:44:39;;;;;;;10.13;4.03;;;0.90;99.90;;;;;;5085167;28;20468;-46
2022/11/28 02:47:32;;;;;;;7.55;3.53;;;0.90;99.90;;;;;;5092591;28;20052;-46
2022/11/28 02:50:08;;;;;;;7.82;3.78;;;1.00;99.90;;;;;;5093246;28;20127;-46
2022/11/28 02:52:43;;;;;;;8.30;2.97;;;1.00;99.90;;;;;;5077856;28;20108;-50
2022/11/28 02:55:11;;;;;;;7.07;3.17;;;1.00;99.90;;;;;;5055071;28;20076;-51
2022/11/28 02:57:49;;;;;;;4.65;3.05;;;1.00;99.90;;;;;;5073016;28;20036;-47
2022/11/28 03:00:31;;;;;;;8.75;3.13;;;1.10;99.90;;;;;;5074897;28;20047;-48
2022/11/28 03:03:01;;;;;;;5.10;2.75;;;1.00;99.90;;;;;;5073003;28;20102;-47
2022/11/28 03:05:57;;;;;;;4.85;3.00;;;1.00;99.90;;;;;;5073597;28;20431;-48
2022/11/28 03:08:35;;;;;;;5.25;3.13;;;1.00;99.90;;;;;;5061528;28;20136;-48
2022/11/28 03:11:11;;;;;;;5.03;3.03;;;1.00;99.90;;;;;;5072455;28;20048;-48
2022/11/28 03:14:03;;;;;;;6.20;2.90;;;1.10;99.90;;;;;;5072890;28;20044;-50
2022/11/28 03:16:38;;;;;;;5.22;3.08;;;1.10;99.90;;;;;;5085390;28;20446;-47
2022/11/28 03:19:31;;;;;;;7.53;2.85;;;1.10;99.90;;;;;;5089474;28;20113;-48
2022/11/28 03:22:18;;;;;;;7.43;3.15;;;1.10;99.90;;;;;;5084264;28;20033;-47
2022/11/28 03:24:55;;;;;;;7.00;3.25;;;1.20;99.90;;;;;;5040499;28;20044;-48
2022/11/28 03:27:34;;;;;;;3.75;2.28;;;1.10;99.90;;;;;;5089153;28;20040;-48
2022/11/28 03:30:18;;;;;;;5.10;3.10;;;1.20;99.90;;;;;;5086576;28;20068;-49
2022/11/28 03:32:49;;;;;;;9.60;3.60;;;1.10;99.90;;;;;;5071323;28;20597;-48
2022/11/28 03:35:21;;;;;;;9.02;3.17;;;1.10;99.90;;;;;;5053720;28;20098;-48
2022/11/28 03:37:53;;;;;;;10.00;3.70;;;1.20;99.90;;;;;;5072812;28;20094;-48
2022/11/28 03:40:25;;;;;;;8.02;2.78;;;1.20;99.90;;;;;;5071920;28;20102;-48
2022/11/28 03:42:59;;;;;;;7.63;2.83;;;1.20;99.90;;;;;;5071406;28;20053;-48
2022/11/28 03:45:30;;;;;;;7.18;3.13;;;1.20;99.90;;;;;;5081206;28;20067;-48
2022/11/28 03:48:07;;;;;;;6.13;2.75;;;1.30;99.90;;;;;;5088608;28;20062;-47
2022/11/28 03:50:44;;;;;;;7.40;3.50;;;1.30;99.90;;;;;;5092552;28;20109;-48
2022/11/28 03:53:26;;;;;;;8.02;3.90;;;1.30;99.90;;;;;;5090645;28;20454;-47
2022/11/28 03:56:03;;;;;;;7.07;3.35;;;1.30;99.90;;;;;;5092110;28;20420;-48
2022/11/28 03:58:53;;;;;;;9.75;2.97;;;1.20;99.90;;;;;;5091678;28;20097;-47
2022/11/28 04:01:40;;;;;;;6.30;3.38;;;1.10;99.90;;;;;;5091225;28;20389;-48
2022/11/28 04:04:25;;;;;;;3.03;1.98;;;1.10;99.90;;;;;;5083832;28;20105;-47
2022/11/28 04:07:15;;;;;;;5.10;2.50;;;1.00;99.90;;;;;;5073613;28;20060;-48
2022/11/28 04:09:48;;;;;;;4.65;2.65;;;1.10;99.90;;;;;;5092238;28;20059;-48
2022/11/28 04:12:45;;;;;;;8.77;3.42;;;1.00;99.90;;;;;;5088506;28;20393;-48
2022/11/28 04:15:46;;;;;;;8.88;2.85;;;1.10;99.90;;;;;;5045738;28;20531;-49
2022/11/28 04:18:38;;;;;;;7.63;3.08;;;1.00;99.90;;;;;;5047480;28;20109;-47
2022/11/28 04:21:13;;;;;;;5.55;2.80;;;1.00;99.90;;;;;;5078731;28;20071;-50
2022/11/28 04:23:42;;;;;;;7.03;2.88;;;1.00;99.90;;;;;;5090268;28;20047;-49
2022/11/28 04:26:28;;;;;;;5.65;2.42;;;1.00;99.90;;;;;;5091557;28;20099;-49
2022/11/28 04:28:59;;;;;;;7.80;3.25;;;1.10;99.90;;;;;;5085356;28;20040;-48
2022/11/28 04:31:26;;;;;;;4.90;2.53;;;1.10;99.90;;;;;;5102618;22;20036;-47
2022/11/28 04:34:21;;;;;;;5.43;2.80;;;1.10;99.90;;;;;;5094721;28;20036;-49
2022/11/28 04:36:49;;;;;;;6.15;2.63;;;1.10;99.90;;;;;;5100923;28;20410;-47
2022/11/28 04:39:20;;;;;;;6.47;3.28;;;1.10;99.90;;;;;;5105985;28;20553;-47
2022/11/28 04:41:57;;;;;;;8.60;3.67;;;1.10;99.90;;;;;;5097431;28;20043;-47
2022/11/28 04:44:35;;;;;;;12.50;3.92;;;1.00;99.90;;;;;;5082957;28;20071;-47
2022/11/28 04:47:02;;;;;;;5.05;2.70;;;1.00;99.90;;;;;;5091475;28;20101;-47
2022/11/28 04:49:30;;;;;;;7.57;3.03;;;0.90;99.90;;;;;;5088588;28;20122;-47
2022/11/28 04:52:12;;;;;;;7.47;2.95;;;1.00;99.90;;;;;;5087870;28;20035;-48
2022/11/28 04:55:03;;;;;;;6.50;3.15;;;1.00;99.90;;;;;;5091473;28;20037;-47
2022/11/28 04:57:37;;;;;;;6.97;3.47;;;1.00;99.90;;;;;;5085376;28;20032;-47
2022/11/28 05:00:10;;;;;;;6.93;3.22;;;1.00;99.90;;;;;;5098499;28;20044;-48
2022/11/28 05:02:39;;;;;;;6.65;2.97;;;1.10;99.90;;;;;;5072144;28;20078;-47
2022/11/28 05:05:09;;;;;;;9.95;3.00;;;1.10;99.90;;;;;;5110857;28;20453;-47
2022/11/28 05:07:36;;;;;;;7.88;3.03;;;1.10;99.90;;;;;;5090430;28;20048;-47
2022/11/28 05:10:04;;;;;;;8.93;3.67;;;1.10;99.90;;;;;;5086827;28;20044;-47
2022/11/28 05:12:30;;;;;;;9.32;3.50;;;1.10;99.90;;;;;;5087350;28;20053;-47
2022/11/28 05:14:57;;;;;;;5.78;2.47;;;1.20;99.90;;;;;;5090637;28;20044;-47
2022/11/28 05:17:24;;;;;;;10.63;3.60;;;1.20;99.90;;;;;;5090668;28;20071;-47
2022/11/28 05:19:51;;;;;;;6.35;3.42;;;1.20;99.90;;;;;;5087130;28;20125;-48
2022/11/28 05:22:17;;;;;;;10.43;3.45;;;1.20;99.90;;;;;;5080667;28;20072;-47
2022/11/28 05:24:44;;;;;;;8.40;2.67;;;1.30;99.90;;;;;;5087951;28;20043;-47
2022/11/28 05:27:11;;;;;;;7.93;2.95;;;1.30;99.90;;;;;;5084719;28;20040;-47
2022/11/28 05:29:42;;;;;;;6.22;2.22;;;1.30;99.90;;;;;;5086867;28;20060;-50
2022/11/28 05:32:15;;;;;;;5.47;2.92;;;1.30;99.90;;;;;;5089268;28;20044;-48
2022/11/28 05:34:41;;;;;;;8.55;3.25;;;1.30;99.90;;;;;;5107373;28;20510;-46
2022/11/28 05:37:08;;;;;;;8.82;3.63;;;1.40;99.90;;;;;;5089434;28;20111;-47
2022/11/28 05:39:35;;;;;;;11.18;3.83;;;1.40;99.90;;;;;;5111090;28;20043;-49
2022/11/28 05:42:02;;;;;;;4.93;3.00;;;1.40;99.90;;;;;;5103659;28;20052;-47
2022/11/28 05:44:29;;;;;;;8.60;3.15;;;1.30;99.90;;;;;;5111095;28;20032;-47
2022/11/28 05:46:56;;;;;;;10.85;4.22;;;1.30;99.90;;;;;;5097486;28;20052;-47
2022/11/28 05:49:24;;;;;;;14.43;5.57;;;1.30;99.90;;;;;;5094501;28;20067;-48
2022/11/28 05:51:51;;;;;;;9.32;4.20;;;1.30;99.90;;;;;;5097706;28;20035;-48
2022/11/28 05:54:17;;;;;;;7.45;2.40;;;1.40;99.90;;;;;;5099666;28;20104;-47
2022/11/28 05:56:44;;;;;;;7.57;2.42;;;1.40;99.90;;;;;;5093233;28;20077;-48
2022/11/28 05:59:12;;;;;;;6.72;2.35;;;1.50;99.90;;;;;;5113127;28;20035;-48
2022/11/28 06:01:39;;;;;;;9.93;3.75;;;1.50;99.90;;;;;;5096816;28;20035;-48
2022/11/28 06:04:06;;;;;;;9.63;3.65;;;1.50;99.90;;;;;;5092597;28;20048;-47
2022/11/28 06:06:34;;;;;;;10.60;2.80;;;1.50;99.90;;;;;;5074918;28;20128;-47
2022/11/28 06:09:01;;;;;;;13.52;3.33;;;1.50;99.90;;;;;;5091898;28;20075;-47
2022/11/28 06:11:29;;;;;;;7.30;3.67;;;1.50;99.90;;;;;;5104331;28;20063;-47
2022/11/28 06:13:56;;;;;;;7.15;3.45;;;1.50;99.90;;;;;;5114104;28;20043;-47
2022/11/28 06:16:25;;;;;;;8.90;3.40;;;1.50;99.90;;;;;;5102727;28;20081;-47
2022/11/28 06:18:53;;;;;;;8.05;3.28;;;1.50;99.90;;;;;;5113918;28;20062;-49
2022/11/28 06:21:21;;;;;;;7.95;3.65;;;1.60;99.90;;;;;;5114168;28;20472;-48
2022/11/28 06:23:48;;;;;;;7.38;3.85;;;1.50;99.90;;;;;;5113771;28;20043;-47
2022/11/28 06:26:18;;;;;;;8.95;4.18;;;1.60;99.90;;;;;;5088073;28;20097;-47
2022/11/28 06:28:44;;;;;;;7.15;3.75;;;1.60;99.90;;;;;;5088398;28;20079;-47
2022/11/28 06:31:19;;;;;;;8.30;3.85;;;1.60;99.90;;;;;;5093462;28;20071;-47
2022/11/28 06:33:47;;;;;;;9.85;3.53;;;1.60;99.90;;;;;;5088670;28;20048;-48
2022/11/28 06:36:15;;;;;;;8.00;4.05;;;1.60;99.90;;;;;;5081618;28;20047;-47
2022/11/28 06:38:42;;;;;;;12.20;3.85;;;1.60;99.90;;;;;;5087102;28;20098;-46
2022/11/28 06:41:12;;;;;;;7.95;3.70;;;1.50;99.90;;;;;;5083697;28;20278;-47
2022/11/28 06:43:39;;;;;;;11.38;4.25;;;1.50;99.90;;;;;;5084994;28;20098;-48
2022/11/28 06:46:14;;;;;;;7.78;3.90;;;1.50;99.90;;;;;;5113367;28;20043;-47
2022/11/28 06:48:46;;;;;;;8.15;4.63;;;1.50;99.90;;;;;;5112593;28;20039;-47
2022/11/28 06:51:13;;;;;;;16.85;4.38;;;1.50;99.90;;;;;;5095918;28;20473;-47
2022/11/28 06:53:40;;;;;;;9.68;4.18;;;1.50;99.90;;;;;;5106863;28;20082;-45
2022/11/28 06:56:13;;;;;;;6.75;3.85;;;1.60;99.90;;;;;;5113357;28;20043;-45
2022/11/28 06:58:40;;;;;;;11.60;4.22;;;1.60;99.90;;;;;;5113477;28;20031;-47
2022/11/28 07:01:16;;;;;;;8.52;3.88;;;1.70;99.90;;;;;;5098418;28;20519;-47
2022/11/28 07:03:44;;;;;;;10.75;4.22;;;1.70;99.90;;;;;;5113341;28;20069;-47
2022/11/28 07:06:12;;;;;;;8.20;3.95;;;1.60;99.90;;;;;;5101304;28;20104;-47
2022/11/28 07:08:39;;;;;;;6.38;3.10;;;1.60;99.90;;;;;;5095300;28;20499;-47
2022/11/28 07:11:27;;;;;;;7.03;3.35;;;1.60;99.90;;;;;;5112430;28;20275;-47
2022/11/28 07:13:54;;;;;;;4.80;2.65;;;1.70;99.90;;;;;;5103071;28;20044;-47
2022/11/28 07:16:24;;;;;;;7.10;3.53;;;1.70;99.90;;;;;;5084245;28;20032;-47
2022/11/28 07:18:52;;;;;;;9.10;3.30;;;1.70;99.90;;;;;;5093150;28;20144;-48
2022/11/28 07:21:20;;;;;;;6.97;3.60;;;1.70;99.90;;;;;;5089778;28;20052;-47
2022/11/28 07:23:47;;;;;;;9.88;3.50;;;1.90;99.90;;;;;;5107025;28;20545;-48
2022/11/28 07:26:16;;;;;;;9.75;3.28;;;1.90;99.90;;;;;;5112187;28;20071;-47
2022/11/28 07:28:44;;;;;;;7.38;3.70;;;1.90;99.90;;;;;;5112947;28;20088;-47
2022/11/28 07:31:13;;;;;;;9.90;3.15;;;2.00;99.90;;;;;;5094447;28;20040;-47
2022/11/28 07:33:42;;;;;;;6.53;2.97;;;1.90;99.90;;;;;;5081687;28;20515;-48
2022/11/28 07:36:20;;;;;;;8.95;3.45;;;2.00;99.90;;;;;;5075359;28;20097;-48
2022/11/28 07:38:49;;;;;;;7.20;3.75;;;2.00;99.90;;;;;;5093740;28;20089;-48
2022/11/28 07:41:16;;;;;;;11.43;4.32;;;2.00;99.90;;;;;;5092120;28;20353;-47
2022/11/28 07:43:48;;;;;;;8.75;4.55;;;2.00;99.90;;;;;;5085372;28;20041;-46
2022/11/28 07:46:16;;;;;;;;;;;2.00;99.90;;;;;;5057048;28;20056;-47
2022/11/28 07:48:44;;;;;;;11.95;3.80;;;2.00;99.90;;;;;;5091442;28;19920;-47
2022/11/28 07:51:14;;;;;;;7.43;3.40;;;2.10;99.90;;;;;;5092463;28;20076;-47
2022/11/28 07:53:42;;;;;;;10.25;4.60;;;2.10;99.90;;;;;;5072751;28;20055;-47
2022/11/28 07:56:13;;;;;;;13.30;4.40;;;2.20;99.90;;;;;;5110119;28;20072;-47
2022/11/28 07:58:42;;;;;;;11.23;5.15;;;2.20;99.90;;;;;;5110619;28;20071;-47
2022/11/28 08:01:29;;;;;;;10.73;4.70;;;2.30;99.90;;;;;;5112537;28;20097;-47
2022/11/28 08:03:56;;;;;;;15.70;5.37;;;2.40;99.90;;;;;;5079590;28;20053;-47
2022/11/28 08:06:26;;;;;;;8.50;3.33;;;2.30;99.90;;;;;;5092059;28;20048;-48
2022/11/28 08:08:54;;;;;;;7.95;3.47;;;2.40;99.90;;;;;;5091219;28;20040;-47
2022/11/28 08:11:23;;;;;;;6.85;3.38;;;2.40;99.90;;;;;;5082211;28;20451;-48
2022/11/28 08:13:50;;;;;;;8.98;4.10;;;2.40;99.90;;;;;;5087523;28;20089;-48
2022/11/28 08:16:24;;;;;;;17.80;5.50;;;2.50;99.90;;;;;;5112044;28;20561;-44
2022/11/28 08:18:51;;;;;;;12.77;5.63;;;2.60;99.90;;;;;;5102722;28;20043;-44
2022/11/28 08:21:24;;;;;;;11.20;5.15;;;2.70;99.90;;;;;;5111774;28;20549;-48
2022/11/28 08:23:53;;;;;;;8.35;4.32;;;2.70;99.90;;;;;;5110203;28;20069;-45
2022/11/28 08:26:22;;;;;;;13.50;5.47;;;2.80;99.90;;;;;;5109574;28;20048;-45
2022/11/28 08:28:56;;;;;;;10.75;4.45;;;2.90;99.90;;;;;;5079724;28;20413;-47
2022/11/28 08:31:29;;;;;;;10.07;4.68;;;2.90;99.90;;;;;;5091186;28;20048;-47
2022/11/28 08:33:57;;;;;;;10.05;4.18;;;3.00;99.90;;;;;;5091724;28;20048;-47
2022/11/28 08:36:24;;;;;;;14.73;4.72;;;3.00;99.90;;;;;;5086044;28;20098;-45
2022/11/28 08:38:55;;;;;;;6.70;3.75;;;3.00;99.90;;;;;;5087487;28;20036;-45
2022/11/28 08:41:41;;;;;;;10.90;4.38;;;3.10;99.90;;;;;;5090250;28;20127;-47
2022/11/28 08:44:08;;;;;;;8.85;3.90;;;3.10;99.90;;;;;;5107350;28;20074;-45
2022/11/28 08:46:35;;;;;;;7.10;2.97;;;3.20;99.90;;;;;;5111750;28;20051;-44
2022/11/28 08:49:02;;;;;;;11.93;4.07;;;3.10;99.90;;;;;;5111578;28;20078;-44
2022/11/28 08:51:30;;;;;;;9.95;4.35;;;3.20;99.90;;;;;;5102753;28;20048;-48
2022/11/28 08:53:57;;;;;;;9.57;4.28;;;3.20;99.90;;;;;;5082908;28;20163;-47
2022/11/28 08:56:25;;;;;;;10.32;4.47;;;3.20;99.90;;;;;;5088428;28;20042;-47
2022/11/28 08:58:52;;;;;;;10.02;4.63;;;3.20;99.90;;;;;;5105648;28;20051;-47
2022/11/28 09:01:21;;;;;;;9.63;5.90;;;3.20;99.90;;;;;;5101427;28;20067;-45
2022/11/28 09:03:48;;;;;;;9.88;3.80;;;3.30;99.90;;;;;;5110814;28;20067;-47
2022/11/28 09:06:16;;;;;;;12.52;5.07;;;3.40;99.90;;;;;;5110279;28;20044;-47
2022/11/28 09:08:43;;;;;;;13.23;4.95;;;3.50;99.90;;;;;;5111498;28;20071;-50
2022/11/28 09:11:12;;;;;;;;;;;3.60;99.90;;;;;;5086596;28;20098;-48
2022/11/28 09:13:39;;;;;;;9.02;4.40;;;3.70;99.90;;;;;;5084553;28;20490;-47
2022/11/28 09:16:06;;;;;;;9.63;4.57;;;3.80;99.90;;;;;;5091073;28;20433;-47
2022/11/28 09:18:33;;;;;;;10.23;4.53;;;3.90;99.90;;;;;;5091927;28;20035;-48
2022/11/28 09:21:01;;;;;;;;;;;3.90;99.90;;;;;;5096199;28;20264;-48
2022/11/28 09:23:28;;;;;;;11.00;4.75;;;4.00;99.90;;;;;;5114841;28;19923;-47
2022/11/28 09:25:55;;;;;;;17.08;7.32;;;4.10;99.90;;;;;;5115534;28;20496;-46
2022/11/28 09:28:23;;;;;;;13.10;6.13;;;4.20;99.90;;;;;;5106872;28;20043;-47
2022/11/28 09:30:49;;;;;;;9.45;4.43;;;4.20;99.90;;;;;;5115281;28;20048;-45
2022/11/28 09:33:16;;;;;;;13.93;4.80;;;4.20;99.90;;;;;;5114479;28;20557;-48
2022/11/28 09:35:43;;;;;;;21.08;7.13;;;4.20;99.90;;;;;;5098066;28;20040;-45
2022/11/28 09:38:09;;;;;;;12.43;5.55;;;4.20;99.90;;;;;;5086504;28;20477;-47
2022/11/28 09:40:42;;;;;;;13.98;5.10;;;4.10;99.90;;;;;;5094946;28;20040;-47
2022/11/28 09:43:37;;;;;;;11.75;3.83;;;4.10;99.90;;;;;;5101989;28;20496;-47
2022/11/28 09:46:08;;;;;;;11.82;3.90;;;4.10;99.90;;;;;;5106690;28;20055;-48
2022/11/28 09:48:48;;;;;;;10.88;4.28;;;4.10;99.90;;;;;;5115210;28;20097;-48
2022/11/28 09:51:33;;;;;;;11.40;3.40;;;4.00;99.90;;;;;;5102724;28;20044;-48
2022/11/28 09:54:23;;;;;;;8.18;3.60;;;4.00;99.90;;;;;;5086140;28;20052;-48
2022/11/28 09:56:51;;;;;;;7.03;4.07;;;4.10;99.90;;;;;;5094776;28;20040;-47
2022/11/28 09:59:17;;;;;;;;;;;4.10;99.90;;;;;;5092747;28;20064;-47
2022/11/28 10:02:11;;;;;;;9.23;3.65;;;4.10;99.90;;;;;;5091114;28;19920;-47
2022/11/28 10:04:52;;;;;;;6.72;3.53;;;4.20;99.90;;;;;;5114340;28;20086;-47
2022/11/28 10:08:01;;;;;;;7.07;3.50;;;4.30;99.90;;;;;;5114591;28;20047;-45
2022/11/28 10:10:49;;;;;;;8.48;3.58;;;4.40;99.90;;;;;;5088002;28;20035;-47
2022/11/28 10:13:50;;;;;;;11.77;3.88;;;4.40;99.90;;;;;;5108203;28;20040;-47
2022/11/28 10:16:43;;;;;;;14.02;3.55;;;4.30;99.90;;;;;;5113788;28;20039;-46
2022/11/28 10:19:18;;;;;;;8.52;3.90;;;4.40;99.90;;;;;;5106610;28;20040;-45
2022/11/28 10:22:10;;;;;;;9.10;3.75;;;4.40;99.90;;;;;;5105498;28;20130;-45
2022/11/28 10:24:51;;;;;;;9.05;4.57;;;4.40;99.90;;;;;;5113493;28;20039;-46
2022/11/28 10:27:17;;;;;;;7.70;3.75;;;4.50;99.90;;;;;;5113977;28;20450;-45
2022/11/28 10:30:01;;;;;;;11.85;5.43;;;4.50;99.90;;;;;;5090517;28;20059;-45
2022/11/28 10:32:34;;;;;;;12.32;4.60;;;4.50;99.90;;;;;;5105892;22;20069;-46
2022/11/28 10:35:09;;;;;;;8.93;4.93;;;4.40;99.90;;;;;;5105238;28;20032;-48
2022/11/28 10:37:37;;;;;;;8.52;4.63;;;4.40;99.90;;;;;;5113258;28;20469;-46
2022/11/28 10:40:25;;;;;;;11.70;4.60;;;4.40;99.90;;;;;;5102314;28;20093;-46
2022/11/28 10:43:40;;;;;;;7.60;4.10;;;4.40;99.90;;;;;;5113466;28;20059;-46
2022/11/28 10:46:37;;;;;;;12.60;4.43;;;4.40;99.90;;;;;;5088205;28;20083;-46
2022/11/28 10:49:23;;;;;;;10.88;3.88;;;4.40;99.90;;;;;;5106926;28;20043;-47
2022/11/28 10:51:50;;;;;;;11.68;4.45;;;4.50;99.90;;;;;;5102415;28;20124;-47
2022/11/28 10:55:03;;;;;;;14.48;4.38;;;4.50;99.90;;;;;;5103907;28;20089;-47
2022/11/28 10:58:02;;;;;;;9.65;4.70;;;4.60;99.90;;;;;;5062577;28;20496;-47
2022/11/28 11:00:29;;;;;;;;;;;4.70;99.90;;;;;;5103184;28;20044;-47
2022/11/28 11:03:01;;;;;;;13.55;6.63;;;4.80;99.90;;;;;;5099120;28;20379;-52
2022/11/28 11:05:33;;;;;;;9.95;4.47;;;4.90;99.90;;;;;;5093234;28;20042;-47
2022/11/28 11:08:23;;;;;;;11.52;3.25;;;5.10;99.90;;;;;;5110527;28;20036;-46
2022/11/28 11:11:09;;;;;;;12.75;3.83;;;5.10;99.90;;;;;;5102522;28;20408;-47
2022/11/28 11:13:58;;;;;;;10.55;3.50;;;5.20;99.90;;;;;;5100999;28;20036;-46
2022/11/28 11:16:25;;;;;;;6.20;3.55;;;5.30;99.90;;;;;;5098361;28;20058;-47
2022/11/28 11:18:54;;;;;;;11.20;4.15;;;5.30;99.90;;;;;;5104859;28;20052;-47
2022/11/28 11:21:25;;;;;;;9.88;4.82;;;5.30;99.90;;;;;;5102159;28;20092;-47
2022/11/28 11:24:14;;;;;;;11.75;4.72;;;5.30;99.90;;;;;;5104652;28;20060;-50
2022/11/28 11:26:44;;;;;;;13.40;4.30;;;5.30;99.90;;;;;;5103027;28;20069;-50
2022/11/28 11:29:19;;;;;;;9.43;4.50;;;5.30;99.90;;;;;;5099389;28;20040;-47
2022/11/28 11:31:50;;;;;;;12.18;4.63;;;5.20;99.90;;;;;;5100641;28;20071;-47
2022/11/28 11:34:20;;;;;;;11.60;4.90;;;5.20;99.90;;;;;;5102249;28;20072;-48
2022/11/28 11:36:47;;;;;;;13.40;4.85;;;5.20;99.90;;;;;;5105258;28;20063;-46
2022/11/28 11:39:19;;;;;;;8.77;4.40;;;5.20;99.90;;;;;;5104539;28;20043;-47
2022/11/28 11:42:07;;;;;;;7.88;4.00;;;5.20;99.90;;;;;;5099846;28;20036;-48
2022/11/28 11:44:34;;;;;;;8.73;4.70;;;5.20;99.90;;;;;;5101387;28;20492;-47
2022/11/28 11:47:09;;;;;;;16.67;4.28;;;5.30;99.90;;;;;;5104798;28;20457;-48
2022/11/28 11:49:37;;;;;;;9.98;4.22;;;5.30;99.90;;;;;;5101689;28;20097;-46
2022/11/28 11:52:24;;;;;;;9.82;4.13;;;5.40;99.90;;;;;;5102577;28;20044;-47
2022/11/28 11:54:56;;;;;;;8.43;4.15;;;5.50;99.90;;;;;;5102306;28;20044;-48
2022/11/28 11:57:34;;;;;;;10.80;5.38;;;5.50;99.90;;;;;;5102425;28;20093;-46
2022/11/28 12:00:33;;;;;;;12.35;4.50;;;5.50;99.90;;;;;;5108450;28;20499;-46
2022/11/28 12:03:24;;;;;;;9.30;4.45;;;5.60;99.90;;;;;;5110423;28;20052;-47
2022/11/28 12:05:57;;;;;;;19.55;5.30;;;5.60;99.90;;;;;;5106620;28;20442;-46
2022/11/28 12:08:53;;;;;;;10.20;4.03;;;5.70;99.90;;;;;;5110447;28;20456;-46
2022/11/28 12:11:53;;;;;;;13.93;4.90;;;5.60;99.90;;;;;;5093313;28;20055;-46
2022/11/28 12:14:31;;;;;;;12.68;4.60;;;5.70;99.90;;;;;;5099138;28;20113;-47
2022/11/28 12:17:15;;;;;;;9.10;4.15;;;5.80;99.90;;;;;;5110724;28;20116;-47
2022/11/28 12:20:05;;;;;;;12.10;4.28;;;5.80;99.90;;;;;;5110832;28;20614;-50
2022/11/28 12:22:59;;;;;;;12.02;4.53;;;5.90;99.90;;;;;;5111049;28;20040;-47
2022/11/28 12:25:51;;;;;;;12.85;4.22;;;5.90;99.90;;;;;;5102916;28;20047;-47
2022/11/28 12:28:37;;;;;;;8.73;3.35;;;6.00;99.90;;;;;;5111298;28;20441;-47
2022/11/28 12:31:16;;;;;;;12.93;3.83;;;5.90;99.90;;;;;;5111417;28;20040;-46
2022/11/28 12:33:58;;;;;;;11.15;4.03;;;5.90;99.90;;;;;;5103237;28;20039;-47
2022/11/28 12:36:31;;;;;;;11.82;4.35;;;6.00;99.90;;;;;;5111121;28;20051;-47
2022/11/28 12:39:30;;;;;;;10.38;3.75;;;6.00;99.90;;;;;;5111229;28;21099;-49
2022/11/28 12:42:27;;;;;;;9.43;4.38;;;6.10;99.90;;;;;;5105870;28;20046;-46
2022/11/28 12:45:15;;;;;;;8.43;3.92;;;6.10;99.90;;;;;;5106164;28;20047;-48
2022/11/28 12:48:13;;;;;;;8.27;4.15;;;6.10;99.90;;;;;;5108880;28;20491;-49
2022/11/28 12:50:46;;;;;;;12.15;4.00;;;6.10;99.90;;;;;;5105407;28;20089;-47
2022/11/28 12:53:22;;;;;;;7.55;4.00;;;6.20;99.90;;;;;;5106584;28;20039;-47
2022/11/28 12:56:24;;;;;;;12.45;4.00;;;6.30;99.90;;;;;;5108094;28;20040;-47
2022/11/28 12:58:59;;;;;;;6.60;3.58;;;6.30;99.90;;;;;;5108799;28;20075;-47
2022/11/28 13:01:44;;;;;;;13.65;4.18;;;6.30;99.90;;;;;;5108845;28;20112;-46
2022/11/28 13:04:34;;;;;;;10.45;4.35;;;6.20;99.90;;;;;;5110225;28;20046;-47
2022/11/28 13:07:35;;;;;;;9.80;3.65;;;6.20;99.90;;;;;;5102227;28;20048;-47
2022/11/28 13:10:24;;;;;;;11.80;5.20;;;6.20;99.90;;;;;;5016687;28;20054;-49
2022/11/28 13:12:59;;;;;;;;;;;6.20;99.90;;;;;;5108738;28;20031;-48
2022/11/28 13:15:29;;;;;;;13.07;5.25;;;6.20;99.90;;;;;;5108425;28;20369;-47
2022/11/28 13:18:14;;;;;;;12.32;6.50;;;6.20;99.90;;;;;;5110982;28;20036;-47
2022/11/28 13:20:47;;;;;;;18.33;8.35;;;6.10;99.90;;;;;;5110547;28;20813;-47
2022/11/28 13:23:32;;;;;;;17.73;7.72;;;6.10;99.90;;;;;;5110376;28;20047;-46
2022/11/28 13:26:09;;;;;;;14.68;6.63;;;6.10;99.90;;;;;;5111007;28;20035;-47
2022/11/28 13:28:45;;;;;;;17.02;6.47;;;6.10;99.90;;;;;;5099440;28;20081;-48
2022/11/28 13:31:37;;;;;;;11.35;6.50;;;6.10;99.90;;;;;;5105412;28;20072;-47
2022/11/28 13:34:10;;;;;;;16.90;7.00;;;6.10;99.90;;;;;;5095767;28;20044;-47
2022/11/28 13:36:41;;;;;;;19.58;7.13;;;6.00;99.90;;;;;;5102785;28;20454;-49